ADDS TAF Board INFO
 
 

IDs: Format: Expanded Condensed

KLGA - New York/La Guardia, NY, US

Issued at 0312 UTC 22 Aug 2014
Time0551Z22/06Z22/07Z22/08Z22/09Z22/10Z22/11Z22/12Z22/13Z22/14Z22/15Z22/16Z22/17Z22/18Z
TypeOBSPRVLPRVLPRVLPRVLPRVLPRVLPRVLPRVLPRVLPRVLPRVLPRVLPRVL
Vis10>6>6>6>6>6>6>6>6>6>6>6>6>6
Cig2850505050202020203535353535
CoverOVCBKNBKNBKNBKNOVCOVCOVCOVCOVCOVCOVCOVCOVC
FltCatMVFRVFRVFRVFRVFRMVFRMVFRMVFRMVFRVFRVFRVFRVFRVFR
Wx-RAVCSHVCSHVCSHVCSH------------------
WDir1201301301301301001001001009090909090
WSpd3777788881010101010
WGst----------------------------
R04/22
XWnd-3-7-7-7-7-7-7-7-7-8-8-8-8-8
HWnd0-1-1-1-1333355555
R13/31
XWnd0-1-1-1-1333355555
HWnd37777777788888
Raw TAF
KLGA 220312Z 2203/2224 13007KT P6SM VCSH SCT020 BKN050
  TEMPO 2203/2206 5SM SHRA BKN020
  FM221000 10008KT P6SM OVC020
  FM221400 09010KT P6SM SCT025 OVC035


Raw METAR
KLGA 220551Z 12003KT 10SM -RA FEW021 BKN028 BKN110 OVC140 20/17 A3001 RMK AO2 SLP162 P0004 60120 T02000172 10239 20178 58004

TAF Board Legend

Hazard Green Yellow Red Magenta
Visibility (sm) >5 >2.99 >0.99 <=0.99
Ceiling (100 ft) >30 >9.99 >4.99 <=4.99
Wind Speed (kt) <10 <20 <30 >=30
Wind Gust (kt) <10 <20 <30 >=30
Weather No Wx Reported Light precipitation Moderate precipitation Heavy precipitation
Flight Category VFR MVFR IFR LIFR

Page loaded:  05:54 UTC  |   10:54 PM Pacific  |   11:54 PM Mountain  |   12:54 AM Central  |   01:54 AM Eastern

 

ADVISORIES

FORECASTS

FORECASTS

OBSERVATIONS

USER TOOLS

ABOUT US